sensor_id;sensor_type;location;lat;lon;timestamp;pressure;altitude;pressure_sealevel;temperature;humidity
26719;BME280;14326;50.794;6.060;2023-09-30T00:01:26;100560.16;;;15.26;100.00
26719;BME280;14326;50.794;6.060;2023-09-30T00:03:52;100561.06;;;15.22;100.00
26719;BME280;14326;50.794;6.060;2023-09-30T00:06:18;100564.66;;;15.24;100.00
26719;BME280;14326;50.794;6.060;2023-09-30T00:08:46;100566.41;;;15.22;100.00
26719;BME280;14326;50.794;6.060;2023-09-30T00:11:14;100565.47;;;15.15;100.00
26719;BME280;14326;50.794;6.060;2023-09-30T00:13:41;100558.28;;;15.06;100.00
26719;BME280;14326;50.794;6.060;2023-09-30T00:16:07;100543.03;;;14.98;100.00
26719;BME280;14326;50.794;6.060;2023-09-30T00:18:34;100542.13;;;14.93;100.00
26719;BME280;14326;50.794;6.060;2023-09-30T00:21:00;100545.66;;;14.84;100.00
26719;BME280;14326;50.794;6.060;2023-09-30T00:23:27;100550.94;;;14.77;100.00
26719;BME280;14326;50.794;6.060;2023-09-30T00:25:55;100551.81;;;14.72;100.00
26719;BME280;14326;50.794;6.060;2023-09-30T00:28:22;100548.19;;;14.67;100.00
26719;BME280;14326;50.794;6.060;2023-09-30T00:30:48;100555.34;;;14.70;100.00
26719;BME280;14326;50.794;6.060;2023-09-30T00:33:15;100568.75;;;14.70;100.00
26719;BME280;14326;50.794;6.060;2023-09-30T00:35:41;100575.94;;;14.72;100.00
26719;BME280;14326;50.794;6.060;2023-09-30T00:38:08;100576.81;;;14.74;100.00
26719;BME280;14326;50.794;6.060;2023-09-30T00:40:35;100583.97;;;14.72;100.00
26719;BME280;14326;50.794;6.060;2023-09-30T00:43:03;100578.56;;;14.66;100.00
26719;BME280;14326;50.794;6.060;2023-09-30T00:45:30;100580.25;;;14.58;100.00
26719;BME280;14326;50.794;6.060;2023-09-30T00:47:56;100573.03;;;14.50;100.00
26719;BME280;14326;50.794;6.060;2023-09-30T00:50:23;100577.47;;;14.46;100.00
26719;BME280;14326;50.794;6.060;2023-09-30T00:52:49;100575.66;;;14.41;100.00
26719;BME280;14326;50.794;6.060;2023-09-30T00:55:16;100572.00;;;14.35;100.00
26719;BME280;14326;50.794;6.060;2023-09-30T00:57:43;100571.97;;;14.34;100.00
26719;BME280;14326;50.794;6.060;2023-09-30T01:00:12;100577.34;;;14.34;100.00
26719;BME280;14326;50.794;6.060;2023-09-30T01:02:38;100581.75;;;14.29;100.00
26719;BME280;14326;50.794;6.060;2023-09-30T01:05:06;100574.53;;;14.22;100.00
26719;BME280;14326;50.794;6.060;2023-09-30T01:07:33;100578.06;;;14.18;100.00
26719;BME280;14326;50.794;6.060;2023-09-30T01:09:59;100582.50;;;14.16;100.00
26719;BME280;14326;50.794;6.060;2023-09-30T01:12:25;100584.31;;;14.17;100.00
26719;BME280;14326;50.794;6.060;2023-09-30T01:14:56;100575.38;;;14.16;100.00
26719;BME280;14326;50.794;6.060;2023-09-30T01:17:24;100581.56;;;14.14;100.00
26719;BME280;14326;50.794;6.060;2023-09-30T01:19:51;100581.53;;;14.06;100.00
26719;BME280;14326;50.794;6.060;2023-09-30T01:22:19;100589.53;;;14.05;100.00
26719;BME280;14326;50.794;6.060;2023-09-30T01:24:45;100586.84;;;14.05;100.00
26719;BME280;14326;50.794;6.060;2023-09-30T01:27:12;100589.41;;;13.94;100.00
26719;BME280;14326;50.794;6.060;2023-09-30T01:29:41;100585.78;;;13.89;100.00
26719;BME280;14326;50.794;6.060;2023-09-30T01:32:08;100593.88;;;13.93;100.00
26719;BME280;14326;50.794;6.060;2023-09-30T01:34:35;100585.78;;;13.90;100.00
26719;BME280;14326;50.794;6.060;2023-09-30T01:37:01;100589.31;;;13.83;100.00
26719;BME280;14326;50.794;6.060;2023-09-30T01:39:29;100583.91;;;13.80;100.00
26719;BME280;14326;50.794;6.060;2023-09-30T01:41:56;100586.56;;;13.80;100.00
26719;BME280;14326;50.794;6.060;2023-09-30T01:44:22;100583.94;;;13.82;100.00
26719;BME280;14326;50.794;6.060;2023-09-30T01:46:48;100588.38;;;13.81;100.00
26719;BME280;14326;50.794;6.060;2023-09-30T01:49:15;100596.41;;;13.84;100.00
26719;BME280;14326;50.794;6.060;2023-09-30T01:51:43;100580.38;;;13.83;100.00
26719;BME280;14326;50.794;6.060;2023-09-30T01:54:10;100578.53;;;13.77;100.00
26719;BME280;14326;50.794;6.060;2023-09-30T01:56:38;100579.41;;;13.76;100.00
26719;BME280;14326;50.794;6.060;2023-09-30T01:59:05;100585.66;;;13.78;100.00
26719;BME280;14326;50.794;6.060;2023-09-30T02:01:31;100579.41;;;13.76;100.00
26719;BME280;14326;50.794;6.060;2023-09-30T02:03:57;100584.72;;;13.75;100.00
26719;BME280;14326;50.794;6.060;2023-09-30T02:06:24;100587.41;;;13.75;100.00
26719;BME280;14326;50.794;6.060;2023-09-30T02:08:50;100588.28;;;13.72;100.00
26719;BME280;14326;50.794;6.060;2023-09-30T02:11:17;100574.88;;;13.71;100.00
26719;BME280;14326;50.794;6.060;2023-09-30T02:13:44;100583.75;;;13.68;100.00
26719;BME280;14326;50.794;6.060;2023-09-30T02:16:11;100592.63;;;13.64;100.00
26719;BME280;14326;50.794;6.060;2023-09-30T02:18:38;100601.56;;;13.66;100.00
26719;BME280;14326;50.794;6.060;2023-09-30T02:21:06;100599.78;;;13.65;100.00
26719;BME280;14326;50.794;6.060;2023-09-30T02:23:32;100604.25;;;13.66;100.00
26719;BME280;14326;50.794;6.060;2023-09-30T02:25:59;100597.94;;;13.63;100.00
26719;BME280;14326;50.794;6.060;2023-09-30T02:28:25;100594.28;;;13.56;100.00
26719;BME280;14326;50.794;6.060;2023-09-30T02:30:53;100587.97;;;13.48;100.00
26719;BME280;14326;50.794;6.060;2023-09-30T02:33:19;100589.66;;;13.41;100.00
26719;BME280;14326;50.794;6.060;2023-09-30T02:35:46;100588.69;;;13.38;100.00
26719;BME280;14326;50.794;6.060;2023-09-30T02:38:12;100589.56;;;13.34;100.00
26719;BME280;14326;50.794;6.060;2023-09-30T02:40:41;100597.53;;;13.31;100.00
26719;BME280;14326;50.794;6.060;2023-09-30T02:43:11;100601.03;;;13.25;100.00
26719;BME280;14326;50.794;6.060;2023-09-30T02:45:37;100600.03;;;13.20;100.00
26719;BME280;14326;50.794;6.060;2023-09-30T02:48:05;100591.13;;;13.20;100.00
26719;BME280;14326;50.794;6.060;2023-09-30T02:50:33;100603.59;;;13.18;100.00
26719;BME280;14326;50.794;6.060;2023-09-30T02:53:00;100608.00;;;13.16;100.00
26719;BME280;14326;50.794;6.060;2023-09-30T02:55:26;100607.13;;;13.17;100.00
26719;BME280;14326;50.794;6.060;2023-09-30T02:57:52;100603.47;;;13.11;100.00
26719;BME280;14326;50.794;6.060;2023-09-30T03:00:19;100604.28;;;13.07;100.00
26719;BME280;14326;50.794;6.060;2023-09-30T03:02:48;100599.81;;;13.06;100.00
26719;BME280;14326;50.794;6.060;2023-09-30T03:05:16;100610.44;;;13.03;100.00
26719;BME280;14326;50.794;6.060;2023-09-30T03:07:44;100611.31;;;13.01;100.00
26719;BME280;14326;50.794;6.060;2023-09-30T03:10:11;100615.72;;;12.99;100.00
26719;BME280;14326;50.794;6.060;2023-09-30T03:12:39;100615.66;;;12.94;100.00
26719;BME280;14326;50.794;6.060;2023-09-30T03:15:05;100619.09;;;12.87;100.00
26719;BME280;14326;50.794;6.060;2023-09-30T03:17:33;100620.91;;;12.88;100.00
26719;BME280;14326;50.794;6.060;2023-09-30T03:20:01;100617.09;;;12.74;100.00
26719;BME280;14326;50.794;6.060;2023-09-30T03:22:35;100620.59;;;12.70;100.00
26719;BME280;14326;50.794;6.060;2023-09-30T03:25:02;100616.94;;;12.63;100.00
26719;BME280;14326;50.794;6.060;2023-09-30T03:27:32;100611.41;;;12.53;100.00
26719;BME280;14326;50.794;6.060;2023-09-30T03:29:59;100611.34;;;12.50;100.00
26719;BME280;14326;50.794;6.060;2023-09-30T03:32:26;100609.50;;;12.46;100.00
26719;BME280;14326;50.794;6.060;2023-09-30T03:34:53;100597.88;;;12.41;100.00
26719;BME280;14326;50.794;6.060;2023-09-30T03:37:19;100595.13;;;12.38;100.00
26719;BME280;14326;50.794;6.060;2023-09-30T03:39:47;100600.50;;;12.39;100.00
26719;BME280;14326;50.794;6.060;2023-09-30T03:42:14;100609.47;;;12.43;100.00
26719;BME280;14326;50.794;6.060;2023-09-30T03:44:41;100608.72;;;12.51;100.00
26719;BME280;14326;50.794;6.060;2023-09-30T03:47:08;100608.88;;;12.60;100.00
26719;BME280;14326;50.794;6.060;2023-09-30T03:49:34;100619.56;;;12.62;100.00
26719;BME280;14326;50.794;6.060;2023-09-30T03:52:03;100612.44;;;12.61;100.00
26719;BME280;14326;50.794;6.060;2023-09-30T03:54:31;100599.84;;;12.52;100.00
26719;BME280;14326;50.794;6.060;2023-09-30T03:56:59;100590.00;;;12.50;100.00
26719;BME280;14326;50.794;6.060;2023-09-30T03:59:25;100589.84;;;12.41;100.00
26719;BME280;14326;50.794;6.060;2023-09-30T04:01:53;100590.66;;;12.35;100.00
26719;BME280;14326;50.794;6.060;2023-09-30T04:04:19;100587.94;;;12.34;100.00
26719;BME280;14326;50.794;6.060;2023-09-30T04:06:46;100582.56;;;12.30;100.00
26719;BME280;14326;50.794;6.060;2023-09-30T04:09:13;100575.44;;;12.29;100.00
26719;BME280;14326;50.794;6.060;2023-09-30T04:11:40;100579.00;;;12.31;100.00
26719;BME280;14326;50.794;6.060;2023-09-30T04:14:08;100570.94;;;12.27;100.00
26719;BME280;14326;50.794;6.060;2023-09-30T04:16:35;100574.53;;;12.29;100.00
26719;BME280;14326;50.794;6.060;2023-09-30T04:19:02;100569.13;;;12.26;100.00
26719;BME280;14326;50.794;6.060;2023-09-30T04:21:29;100572.56;;;12.17;100.00
26719;BME280;14326;50.794;6.060;2023-09-30T04:23:59;100575.22;;;12.17;100.00
26719;BME280;14326;50.794;6.060;2023-09-30T04:26:26;100583.19;;;12.16;100.00
26719;BME280;14326;50.794;6.060;2023-09-30T04:28:52;100584.13;;;12.19;100.00
26719;BME280;14326;50.794;6.060;2023-09-30T04:31:20;100614.44;;;12.23;100.00
26719;BME280;14326;50.794;6.060;2023-09-30T04:33:48;100609.13;;;12.24;100.00
26719;BME280;14326;50.794;6.060;2023-09-30T04:36:16;100602.91;;;12.24;100.00
26719;BME280;14326;50.794;6.060;2023-09-30T04:38:42;100596.44;;;12.11;100.00
26719;BME280;14326;50.794;6.060;2023-09-30T04:41:08;100594.59;;;12.07;100.00
26719;BME280;14326;50.794;6.060;2023-09-30T04:43:35;100610.47;;;12.01;100.00
26719;BME280;14326;50.794;6.060;2023-09-30T04:46:03;100596.25;;;12.01;100.00
26719;BME280;14326;50.794;6.060;2023-09-30T04:48:31;100606.84;;;11.98;100.00
26719;BME280;14326;50.794;6.060;2023-09-30T04:50:58;100621.03;;;11.97;100.00
26719;BME280;14326;50.794;6.060;2023-09-30T04:53:24;100615.66;;;11.94;100.00
26719;BME280;14326;50.794;6.060;2023-09-30T04:55:51;100612.00;;;11.90;100.00
26719;BME280;14326;50.794;6.060;2023-09-30T04:58:18;100612.78;;;11.84;100.00
26719;BME280;14326;50.794;6.060;2023-09-30T05:00:44;100611.84;;;11.81;100.00
26719;BME280;14326;50.794;6.060;2023-09-30T05:03:10;100602.09;;;11.81;100.00
26719;BME280;14326;50.794;6.060;2023-09-30T05:05:38;100595.81;;;11.79;100.00
26719;BME280;14326;50.794;6.060;2023-09-30T05:08:05;100595.69;;;11.73;100.00
26719;BME280;14326;50.794;6.060;2023-09-30T05:10:32;100611.63;;;11.72;100.00
26719;BME280;14326;50.794;6.060;2023-09-30T05:12:59;100608.03;;;11.70;100.00
26719;BME280;14326;50.794;6.060;2023-09-30T05:15:25;100599.06;;;11.65;100.00
26719;BME280;14326;50.794;6.060;2023-09-30T05:17:54;100607.81;;;11.61;100.00
26719;BME280;14326;50.794;6.060;2023-09-30T05:20:20;100605.25;;;11.64;100.00
26719;BME280;14326;50.794;6.060;2023-09-30T05:22:49;100607.81;;;11.61;100.00
26719;BME280;14326;50.794;6.060;2023-09-30T05:25:16;100613.03;;;11.55;100.00
26719;BME280;14326;50.794;6.060;2023-09-30T05:27:42;100614.81;;;11.56;100.00
26719;BME280;14326;50.794;6.060;2023-09-30T05:30:09;100625.31;;;11.46;100.00
26719;BME280;14326;50.794;6.060;2023-09-30T05:32:36;100636.78;;;11.44;100.00
26719;BME280;14326;50.794;6.060;2023-09-30T05:35:03;100635.06;;;11.46;100.00
26719;BME280;14326;50.794;6.060;2023-09-30T05:37:30;100628.78;;;11.44;100.00
26719;BME280;14326;50.794;6.060;2023-09-30T05:39:58;57030.06;;;-142.25;100.00
26719;BME280;14326;50.794;6.060;2023-09-30T05:42:24;57030.06;;;-142.25;100.00
26719;BME280;14326;50.794;6.060;2023-09-30T05:44:51;57030.06;;;-142.25;100.00
26719;BME280;14326;50.794;6.060;2023-09-30T05:47:18;57030.06;;;-142.25;100.00
26719;BME280;14326;50.794;6.060;2023-09-30T05:49:44;57030.06;;;-142.25;100.00
26719;BME280;14326;50.794;6.060;2023-09-30T05:52:11;57030.06;;;-142.25;100.00
26719;BME280;14326;50.794;6.060;2023-09-30T05:54:37;57030.06;;;-142.25;100.00
26719;BME280;14326;50.794;6.060;2023-09-30T05:57:05;57030.06;;;-142.25;100.00
26719;BME280;14326;50.794;6.060;2023-09-30T05:59:33;57030.06;;;-142.25;100.00
26719;BME280;14326;50.794;6.060;2023-09-30T06:02:00;57030.06;;;-142.25;100.00
26719;BME280;14326;50.794;6.060;2023-09-30T06:04:28;57030.06;;;-142.25;100.00
26719;BME280;14326;50.794;6.060;2023-09-30T06:06:54;57030.06;;;-142.25;100.00
26719;BME280;14326;50.794;6.060;2023-09-30T06:09:20;57030.06;;;-142.25;100.00
26719;BME280;14326;50.794;6.060;2023-09-30T06:11:50;57030.06;;;-142.25;100.00
26719;BME280;14326;50.794;6.060;2023-09-30T06:14:18;57030.06;;;-142.25;100.00
26719;BME280;14326;50.794;6.060;2023-09-30T06:16:44;57030.06;;;-142.25;100.00
26719;BME280;14326;50.794;6.060;2023-09-30T06:19:10;57030.06;;;-142.25;100.00
26719;BME280;14326;50.794;6.060;2023-09-30T06:21:37;57030.06;;;-142.25;100.00
26719;BME280;14326;50.794;6.060;2023-09-30T06:24:05;57030.06;;;-142.25;100.00
26719;BME280;14326;50.794;6.060;2023-09-30T06:26:31;57030.06;;;-142.25;100.00
26719;BME280;14326;50.794;6.060;2023-09-30T06:28:57;57030.06;;;-142.25;100.00
26719;BME280;14326;50.794;6.060;2023-09-30T06:31:26;57030.06;;;-142.25;100.00
26719;BME280;14326;50.794;6.060;2023-09-30T06:33:53;57030.06;;;-142.25;100.00
26719;BME280;14326;50.794;6.060;2023-09-30T06:36:23;57030.06;;;-142.25;100.00
26719;BME280;14326;50.794;6.060;2023-09-30T06:38:49;57030.06;;;-142.25;100.00
26719;BME280;14326;50.794;6.060;2023-09-30T06:41:17;57030.06;;;-142.25;100.00
26719;BME280;14326;50.794;6.060;2023-09-30T06:43:44;57030.06;;;-142.25;100.00
26719;BME280;14326;50.794;6.060;2023-09-30T06:46:11;57030.06;;;-142.25;100.00
26719;BME280;14326;50.794;6.060;2023-09-30T06:48:39;57030.06;;;-142.25;100.00
26719;BME280;14326;50.794;6.060;2023-09-30T06:51:06;57030.06;;;-142.25;100.00
26719;BME280;14326;50.794;6.060;2023-09-30T06:53:32;57030.06;;;-142.25;100.00
26719;BME280;14326;50.794;6.060;2023-09-30T06:55:59;57030.06;;;-142.25;100.00
26719;BME280;14326;50.794;6.060;2023-09-30T06:58:27;57030.06;;;-142.25;100.00
26719;BME280;14326;50.794;6.060;2023-09-30T07:00:53;57030.06;;;-142.25;100.00
26719;BME280;14326;50.794;6.060;2023-09-30T07:03:19;57030.06;;;-142.25;100.00
26719;BME280;14326;50.794;6.060;2023-09-30T07:05:47;57030.06;;;-142.25;100.00
26719;BME280;14326;50.794;6.060;2023-09-30T07:08:15;57030.06;;;-142.25;100.00
26719;BME280;14326;50.794;6.060;2023-09-30T07:10:41;57030.06;;;-142.25;100.00
26719;BME280;14326;50.794;6.060;2023-09-30T07:13:08;57030.06;;;-142.25;100.00
26719;BME280;14326;50.794;6.060;2023-09-30T07:15:34;57030.06;;;-142.25;100.00
26719;BME280;14326;50.794;6.060;2023-09-30T07:18:01;57030.06;;;-142.25;100.00
26719;BME280;14326;50.794;6.060;2023-09-30T07:20:27;57030.06;;;-142.25;100.00
26719;BME280;14326;50.794;6.060;2023-09-30T07:22:59;57030.06;;;-142.25;100.00
26719;BME280;14326;50.794;6.060;2023-09-30T07:25:25;100628.78;;;11.44;100.00
26719;BME280;14326;50.794;6.060;2023-09-30T07:27:52;100688.69;;;19.22;78.06
26719;BME280;14326;50.794;6.060;2023-09-30T07:30:18;100694.09;;;19.22;77.93
26719;BME280;14326;50.794;6.060;2023-09-30T07:32:46;100695.88;;;19.25;78.69
26719;BME280;14326;50.794;6.060;2023-09-30T07:35:15;100706.56;;;19.35;77.36
26719;BME280;14326;50.794;6.060;2023-09-30T07:37:42;100715.44;;;19.51;76.10
26719;BME280;14326;50.794;6.060;2023-09-30T07:40:10;100709.03;;;19.62;73.16
26719;BME280;14326;50.794;6.060;2023-09-30T07:42:37;100719.09;;;19.42;72.43
26719;BME280;14326;50.794;6.060;2023-09-30T07:45:03;100715.50;;;19.43;75.90
26719;BME280;14326;50.794;6.060;2023-09-30T07:47:30;100707.53;;;19.28;74.61
26719;BME280;14326;50.794;6.060;2023-09-30T07:49:58;100707.41;;;19.46;72.25
26719;BME280;14326;50.794;6.060;2023-09-30T07:52:25;100706.50;;;19.46;73.13
26719;BME280;14326;50.794;6.060;2023-09-30T07:54:51;100703.69;;;19.56;72.07
26719;BME280;14326;50.794;6.060;2023-09-30T07:57:19;100712.84;;;19.37;71.12
26719;BME280;14326;50.794;6.060;2023-09-30T07:59:46;100707.34;;;19.52;71.98
26719;BME280;14326;50.794;6.060;2023-09-30T08:02:14;100704.53;;;19.63;70.76
26719;BME280;14326;50.794;6.060;2023-09-30T08:04:40;100712.63;;;19.63;72.42
26719;BME280;14326;50.794;6.060;2023-09-30T08:07:06;100706.31;;;19.62;71.10
26719;BME280;14326;50.794;6.060;2023-09-30T08:09:34;100705.16;;;19.88;69.49
26719;BME280;14326;50.794;6.060;2023-09-30T08:12:02;100710.81;;;19.63;71.35
26719;BME280;14326;50.794;6.060;2023-09-30T08:14:31;100702.78;;;19.59;71.63
26719;BME280;14326;50.794;6.060;2023-09-30T08:16:57;100710.03;;;19.54;70.94
26719;BME280;14326;50.794;6.060;2023-09-30T08:19:23;100707.88;;;19.86;70.74
26719;BME280;14326;50.794;6.060;2023-09-30T08:21:50;100711.31;;;20.00;69.77
26719;BME280;14326;50.794;6.060;2023-09-30T08:24:17;100713.25;;;19.88;70.89
26719;BME280;14326;50.794;6.060;2023-09-30T08:26:43;100712.28;;;19.95;67.95
26719;BME280;14326;50.794;6.060;2023-09-30T08:29:10;100710.22;;;20.17;70.38
26719;BME280;14326;50.794;6.060;2023-09-30T08:31:38;100706.41;;;20.37;67.73
26719;BME280;14326;50.794;6.060;2023-09-30T08:34:04;100703.75;;;20.28;69.29
26719;BME280;14326;50.794;6.060;2023-09-30T08:36:30;100712.84;;;20.24;69.69
26719;BME280;14326;50.794;6.060;2023-09-30T08:38:57;100712.91;;;20.17;68.08
26719;BME280;14326;50.794;6.060;2023-09-30T08:41:24;100711.94;;;20.22;67.84
26719;BME280;14326;50.794;6.060;2023-09-30T08:43:54;100712.94;;;20.15;69.02
26719;BME280;14326;50.794;6.060;2023-09-30T08:46:22;100714.78;;;20.10;69.46
26719;BME280;14326;50.794;6.060;2023-09-30T08:48:51;100699.75;;;19.91;69.92
26719;BME280;14326;50.794;6.060;2023-09-30T08:51:19;100705.97;;;19.96;68.91
26719;BME280;14326;50.794;6.060;2023-09-30T08:53:46;100701.63;;;19.84;69.86
26719;BME280;14326;50.794;6.060;2023-09-30T08:56:14;100704.34;;;19.81;69.09
26719;BME280;14326;50.794;6.060;2023-09-30T08:58:42;100695.31;;;19.82;69.55
26719;BME280;14326;50.794;6.060;2023-09-30T09:01:09;100692.75;;;19.72;70.63
26719;BME280;14326;50.794;6.060;2023-09-30T09:03:36;100688.19;;;19.77;68.72
26719;BME280;14326;50.794;6.060;2023-09-30T09:06:05;100694.44;;;19.82;68.73
26719;BME280;14326;50.794;6.060;2023-09-30T09:08:31;100700.72;;;19.82;68.69
26719;BME280;14326;50.794;6.060;2023-09-30T09:10:58;100702.47;;;19.86;67.75
26719;BME280;14326;50.794;6.060;2023-09-30T09:13:25;100705.09;;;19.92;66.98
26719;BME280;14326;50.794;6.060;2023-09-30T09:16:05;100702.41;;;19.92;68.90
26719;BME280;14326;50.794;6.060;2023-09-30T09:18:32;100696.00;;;20.01;66.78
26719;BME280;14326;50.794;6.060;2023-09-30T09:21:09;100703.16;;;20.05;64.46
26719;BME280;14326;50.794;6.060;2023-09-30T09:23:39;100699.63;;;19.97;65.78
26719;BME280;14326;50.794;6.060;2023-09-30T09:26:05;100706.75;;;20.06;66.17
26719;BME280;14326;50.794;6.060;2023-09-30T09:28:33;100706.91;;;19.93;66.99
26719;BME280;14326;50.794;6.060;2023-09-30T09:31:00;100695.19;;;19.94;67.07
26719;BME280;14326;50.794;6.060;2023-09-30T09:33:33;100702.41;;;19.92;64.76
26719;BME280;14326;50.794;6.060;2023-09-30T09:36:00;100706.97;;;19.86;66.22
26719;BME280;14326;50.794;6.060;2023-09-30T09:38:28;100721.34;;;19.91;65.36
26719;BME280;14326;50.794;6.060;2023-09-30T09:41:09;100713.25;;;19.88;64.87
26719;BME280;14326;50.794;6.060;2023-09-30T09:43:36;100708.69;;;19.93;65.61
26719;BME280;14326;50.794;6.060;2023-09-30T09:46:02;100707.72;;;19.98;66.70
26719;BME280;14326;50.794;6.060;2023-09-30T09:48:31;100713.28;;;19.86;63.91
26719;BME280;14326;50.794;6.060;2023-09-30T09:50:57;100714.94;;;19.98;63.91
26719;BME280;14326;50.794;6.060;2023-09-30T09:53:25;100708.63;;;19.99;62.82
26719;BME280;14326;50.794;6.060;2023-09-30T09:55:53;100718.47;;;20.04;60.76
26719;BME280;14326;50.794;6.060;2023-09-30T09:58:22;100724.75;;;20.08;62.41
26719;BME280;14326;50.794;6.060;2023-09-30T10:00:49;100722.88;;;20.13;60.38
26719;BME280;14326;50.794;6.060;2023-09-30T10:03:16;100719.22;;;20.19;61.00
26719;BME280;14326;50.794;6.060;2023-09-30T10:05:43;100710.28;;;20.12;62.25
26719;BME280;14326;50.794;6.060;2023-09-30T10:08:11;100732.88;;;20.05;63.90
26719;BME280;14326;50.794;6.060;2023-09-30T10:10:38;100731.88;;;20.14;61.48
26719;BME280;14326;50.794;6.060;2023-09-30T10:13:07;100732.72;;;20.17;60.81
26719;BME280;14326;50.794;6.060;2023-09-30T10:15:37;100740.59;;;20.40;57.06
26719;BME280;14326;50.794;6.060;2023-09-30T10:18:03;100740.50;;;20.48;57.50
26719;BME280;14326;50.794;6.060;2023-09-30T10:20:32;100737.78;;;20.49;61.02
26719;BME280;14326;50.794;6.060;2023-09-30T10:25:52;100744.78;;;20.64;56.56
26719;BME280;14326;50.794;6.060;2023-09-30T10:28:33;100737.63;;;20.61;58.85
26719;BME280;14326;50.794;6.060;2023-09-30T10:31:09;100730.50;;;20.53;58.23
26719;BME280;14326;50.794;6.060;2023-09-30T10:33:37;100728.56;;;20.62;59.77
26719;BME280;14326;50.794;6.060;2023-09-30T10:36:27;100718.44;;;20.78;56.00
26719;BME280;14326;50.794;6.060;2023-09-30T10:38:53;100732.31;;;20.54;61.69
26719;BME280;14326;50.794;6.060;2023-09-30T10:46:44;100727.13;;;20.37;61.86
26719;BME280;14326;50.794;6.060;2023-09-30T10:49:17;100724.47;;;20.29;60.30
26719;BME280;14326;50.794;6.060;2023-09-30T10:51:56;100724.75;;;20.07;61.42
26719;BME280;14326;50.794;6.060;2023-09-30T10:54:24;100739.19;;;20.04;60.41
26719;BME280;14326;50.794;6.060;2023-09-30T10:56:52;100750.28;;;19.77;64.56
26719;BME280;14326;50.794;6.060;2023-09-30T10:59:18;100734.22;;;19.61;65.41
26719;BME280;14326;50.794;6.060;2023-09-30T11:01:46;100738.72;;;19.64;66.11
26719;BME280;14326;50.794;6.060;2023-09-30T11:04:13;100731.47;;;19.69;63.95
26719;BME280;14326;50.794;6.060;2023-09-30T11:06:40;100723.38;;;19.68;64.85
26719;BME280;14326;50.794;6.060;2023-09-30T11:09:07;100721.50;;;19.74;64.57
26719;BME280;14326;50.794;6.060;2023-09-30T11:11:38;100715.06;;;19.87;63.19
26719;BME280;14326;50.794;6.060;2023-09-30T11:14:20;100717.13;;;19.64;62.71
26719;BME280;14326;50.794;6.060;2023-09-30T11:16:48;100715.19;;;19.77;62.69
26719;BME280;14326;50.794;6.060;2023-09-30T11:19:15;100712.34;;;19.89;61.37
26719;BME280;14326;50.794;6.060;2023-09-30T11:21:42;100715.19;;;19.77;64.72
26719;BME280;14326;50.794;6.060;2023-09-30T11:24:10;100703.44;;;19.79;64.18
26719;BME280;14326;50.794;6.060;2023-09-30T11:26:36;100703.38;;;19.87;64.58
26719;BME280;14326;50.794;6.060;2023-09-30T11:29:07;100706.84;;;19.98;65.36
26719;BME280;14326;50.794;6.060;2023-09-30T11:31:33;100711.16;;;20.14;61.22
26719;BME280;14326;50.794;6.060;2023-09-30T11:34:01;100711.81;;;20.37;62.58
26719;BME280;14326;50.794;6.060;2023-09-30T11:36:29;100706.81;;;20.70;60.16
26719;BME280;14326;50.794;6.060;2023-09-30T11:38:56;100702.81;;;20.97;59.01
26719;BME280;14326;50.794;6.060;2023-09-30T11:41:31;100706.09;;;21.20;58.52
26719;BME280;14326;50.794;6.060;2023-09-30T11:43:59;100698.41;;;21.45;57.95
26719;BME280;14326;50.794;6.060;2023-09-30T11:46:27;100696.47;;;21.51;56.14
26719;BME280;14326;50.794;6.060;2023-09-30T11:48:56;100698.84;;;21.70;55.98
26719;BME280;14326;50.794;6.060;2023-09-30T11:51:24;100700.78;;;21.63;56.28
26719;BME280;14326;50.794;6.060;2023-09-30T11:53:51;100689.06;;;21.62;56.19
26719;BME280;14326;50.794;6.060;2023-09-30T11:56:18;100688.25;;;21.57;56.05
26719;BME280;14326;50.794;6.060;2023-09-30T11:58:45;100682.16;;;21.45;57.89
26719;BME280;14326;50.794;6.060;2023-09-30T12:01:12;100675.03;;;21.41;57.10
26719;BME280;14326;50.794;6.060;2023-09-30T12:03:38;100654.34;;;21.38;55.46
26719;BME280;14326;50.794;6.060;2023-09-30T12:06:05;100661.69;;;21.30;57.63
26719;BME280;14326;50.794;6.060;2023-09-30T12:08:33;100663.53;;;21.27;57.61
26719;BME280;14326;50.794;6.060;2023-09-30T12:10:59;100653.56;;;21.32;56.93
26719;BME280;14326;50.794;6.060;2023-09-30T12:13:25;100647.97;;;21.39;54.94
26719;BME280;14326;50.794;6.060;2023-09-30T12:15:52;100653.44;;;21.38;56.55
26719;BME280;14326;50.794;6.060;2023-09-30T12:18:19;100651.75;;;21.31;56.69
26719;BME280;14326;50.794;6.060;2023-09-30T12:20:48;100637.19;;;21.38;56.42
26719;BME280;14326;50.794;6.060;2023-09-30T12:23:15;100650.06;;;21.23;59.05
26719;BME280;14326;50.794;6.060;2023-09-30T12:25:44;100649.72;;;21.43;56.50
26719;BME280;14326;50.794;6.060;2023-09-30T12:28:10;100636.78;;;21.57;55.50
26719;BME280;14326;50.794;6.060;2023-09-30T12:30:39;100647.50;;;21.63;58.31
26719;BME280;14326;50.794;6.060;2023-09-30T12:33:05;100644.53;;;21.77;56.70
26719;BME280;14326;50.794;6.060;2023-09-30T12:35:32;100642.59;;;21.85;53.46
26719;BME280;14326;50.794;6.060;2023-09-30T12:37:59;100642.41;;;21.91;54.92
26719;BME280;14326;50.794;6.060;2023-09-30T12:40:25;100640.84;;;21.81;55.43
26719;BME280;14326;50.794;6.060;2023-09-30T12:42:54;100638.91;;;21.88;55.28
26719;BME280;14326;50.794;6.060;2023-09-30T12:45:21;100637.88;;;21.95;54.30
26719;BME280;14326;50.794;6.060;2023-09-30T12:47:47;100633.22;;;22.03;53.55
26719;BME280;14326;50.794;6.060;2023-09-30T12:50:17;100636.59;;;22.13;52.68
26719;BME280;14326;50.794;6.060;2023-09-30T12:52:43;100641.72;;;22.26;52.36